Accueil
METAR-TAF:

METAR-TAF

Aéroports :

Morlaix, France

Aéroport de Morlaix Ploujean

latitude: 48-36N, longitude: 3-49W, altitude: 84 m

Observation

Le bulletin a été fait il y a 1 heure et 21 minutes, à 20:00 UTC
Vent 4 kt de nord
Température 4°C
Humidité 75%
Pression 1020 hPa
Visibilité 10 km ou plus
pas de nuages en-dessous de 1500 mètres et pas de cumulonimbus.

METAR: LFRU 262000Z AUTO 36004KT CAVOK 04/M00 Q1020

Heure: 23:21 (21:21 UTC)


TAF: absent

Observations et prévisions météorologiques de plus de 4000 aéroports (messages METAR et TAF).

Les stations disponibles sont représentées par des disques jaunes et rouges sur la carte.

Passer la souris dessus pour voir le nom de la station.

Cliquer dessus pour voir les observations et prévisions météorologiques.

Pour changer de carte: cliquez sur les boutons verts avec une croix noire pour zoomer, sur le bouton vert avec un tiret pour effectuer un zoom arrière, ou sur les flèches vertes pour les cartes adjacentes.


METAR-TAF: